sensor_id;sensor_type;location;lat;lon;timestamp;temperature;humidity
22132;DHT22;11232;51.748;19.390;2022-09-09T00:04:28;13.60;99.90
22132;DHT22;11232;51.748;19.390;2022-09-09T00:06:56;12.40;99.90
22132;DHT22;11232;51.748;19.390;2022-09-09T00:09:27;13.90;99.90
22132;DHT22;11232;51.748;19.390;2022-09-09T00:12:20;14.60;99.90
22132;DHT22;11232;51.748;19.390;2022-09-09T00:17:38;13.90;99.90
22132;DHT22;11232;51.748;19.390;2022-09-09T00:20:32;13.80;99.90
22132;DHT22;11232;51.748;19.390;2022-09-09T00:23:14;13.60;99.90
22132;DHT22;11232;51.748;19.390;2022-09-09T00:28:30;13.50;99.90
22132;DHT22;11232;51.748;19.390;2022-09-09T00:31:04;14.10;99.90
22132;DHT22;11232;51.748;19.390;2022-09-09T00:33:34;13.60;99.90
22132;DHT22;11232;51.748;19.390;2022-09-09T00:36:00;13.80;99.90
22132;DHT22;11232;51.748;19.390;2022-09-09T00:39:04;13.40;99.90
22132;DHT22;11232;51.748;19.390;2022-09-09T00:44:00;13.30;99.90
22132;DHT22;11232;51.748;19.390;2022-09-09T00:52:02;14.20;99.90
22132;DHT22;11232;51.748;19.390;2022-09-09T00:54:35;13.50;99.90
22132;DHT22;11232;51.748;19.390;2022-09-09T00:57:25;13.40;99.90
22132;DHT22;11232;51.748;19.390;2022-09-09T01:02:53;13.50;99.90
22132;DHT22;11232;51.748;19.390;2022-09-09T01:11:02;13.60;99.90
22132;DHT22;11232;51.748;19.390;2022-09-09T01:13:35;13.60;99.90
22132;DHT22;11232;51.748;19.390;2022-09-09T01:16:03;14.40;99.90
22132;DHT22;11232;51.748;19.390;2022-09-09T01:18:33;13.60;99.90
22132;DHT22;11232;51.748;19.390;2022-09-09T01:21:59;14.80;99.90
22132;DHT22;11232;51.748;19.390;2022-09-09T01:24:35;13.50;99.90
22132;DHT22;11232;51.748;19.390;2022-09-09T01:27:04;13.60;99.90
22132;DHT22;11232;51.748;19.390;2022-09-09T01:29:31;13.50;99.90
22132;DHT22;11232;51.748;19.390;2022-09-09T01:31:59;14.10;99.90
22132;DHT22;11232;51.748;19.390;2022-09-09T01:34:29;13.40;99.90
22132;DHT22;11232;51.748;19.390;2022-09-09T01:37:05;14.00;99.90
22132;DHT22;11232;51.748;19.390;2022-09-09T01:39:32;13.40;99.90
22132;DHT22;11232;51.748;19.390;2022-09-09T01:41:58;13.30;99.90
22132;DHT22;11232;51.748;19.390;2022-09-09T01:44:25;13.50;99.90
22132;DHT22;11232;51.748;19.390;2022-09-09T01:46:51;13.40;99.90
22132;DHT22;11232;51.748;19.390;2022-09-09T01:49:17;13.70;99.90
22132;DHT22;11232;51.748;19.390;2022-09-09T01:51:48;13.50;99.90
22132;DHT22;11232;51.748;19.390;2022-09-09T01:54:15;13.40;99.90
22132;DHT22;11232;51.748;19.390;2022-09-09T02:02:11;13.40;99.90
22132;DHT22;11232;51.748;19.390;2022-09-09T02:05:02;13.40;99.90
22132;DHT22;11232;51.748;19.390;2022-09-09T02:07:38;13.60;99.90
22132;DHT22;11232;51.748;19.390;2022-09-09T02:10:32;13.40;99.90
22132;DHT22;11232;51.748;19.390;2022-09-09T02:13:05;13.50;99.90
22132;DHT22;11232;51.748;19.390;2022-09-09T02:18:07;13.40;99.90
22132;DHT22;11232;51.748;19.390;2022-09-09T02:20:36;13.60;99.90
22132;DHT22;11232;51.748;19.390;2022-09-09T02:23:05;14.00;99.90
22132;DHT22;11232;51.748;19.390;2022-09-09T02:25:33;13.40;99.90
22132;DHT22;11232;51.748;19.390;2022-09-09T02:28:01;14.30;99.90
22132;DHT22;11232;51.748;19.390;2022-09-09T02:30:29;13.60;99.90
22132;DHT22;11232;51.748;19.390;2022-09-09T02:32:59;13.50;99.90
22132;DHT22;11232;51.748;19.390;2022-09-09T02:35:28;14.00;99.90
22132;DHT22;11232;51.748;19.390;2022-09-09T02:37:58;13.60;99.90
22132;DHT22;11232;51.748;19.390;2022-09-09T02:40:25;13.90;99.90
22132;DHT22;11232;51.748;19.390;2022-09-09T02:42:50;13.60;99.90
22132;DHT22;11232;51.748;19.390;2022-09-09T02:45:19;13.60;99.90
22132;DHT22;11232;51.748;19.390;2022-09-09T02:48:31;13.60;99.90
22132;DHT22;11232;51.748;19.390;2022-09-09T02:51:10;13.50;99.90
22132;DHT22;11232;51.748;19.390;2022-09-09T02:53:50;14.10;99.90
22132;DHT22;11232;51.748;19.390;2022-09-09T02:56:22;14.10;99.90
22132;DHT22;11232;51.748;19.390;2022-09-09T02:58:49;13.80;99.90
22132;DHT22;11232;51.748;19.390;2022-09-09T03:01:17;13.80;99.90
22132;DHT22;11232;51.748;19.390;2022-09-09T03:03:43;14.00;99.90
22132;DHT22;11232;51.748;19.390;2022-09-09T03:06:09;14.10;99.90
22132;DHT22;11232;51.748;19.390;2022-09-09T03:08:37;14.90;99.90
22132;DHT22;11232;51.748;19.390;2022-09-09T03:11:03;13.20;99.90
22132;DHT22;11232;51.748;19.390;2022-09-09T03:13:28;13.60;99.90
22132;DHT22;11232;51.748;19.390;2022-09-09T03:15:54;13.60;99.90
22132;DHT22;11232;51.748;19.390;2022-09-09T03:18:20;14.00;99.90
22132;DHT22;11232;51.748;19.390;2022-09-09T03:20:46;13.60;99.90
22132;DHT22;11232;51.748;19.390;2022-09-09T03:23:16;14.70;99.90
22132;DHT22;11232;51.748;19.390;2022-09-09T03:25:52;13.90;99.90
22132;DHT22;11232;51.748;19.390;2022-09-09T03:28:20;13.80;99.90
22132;DHT22;11232;51.748;19.390;2022-09-09T03:30:46;14.40;99.90
22132;DHT22;11232;51.748;19.390;2022-09-09T03:33:11;14.00;99.90
22132;DHT22;11232;51.748;19.390;2022-09-09T03:35:37;14.70;99.90
22132;DHT22;11232;51.748;19.390;2022-09-09T03:38:04;14.20;99.90
22132;DHT22;11232;51.748;19.390;2022-09-09T03:40:29;15.70;99.90
22132;DHT22;11232;51.748;19.390;2022-09-09T03:42:56;14.10;99.90
22132;DHT22;11232;51.748;19.390;2022-09-09T03:45:21;13.80;99.90
22132;DHT22;11232;51.748;19.390;2022-09-09T03:47:47;15.10;99.90
22132;DHT22;11232;51.748;19.390;2022-09-09T03:50:12;14.20;99.90
22132;DHT22;11232;51.748;19.390;2022-09-09T03:52:39;13.80;99.90
22132;DHT22;11232;51.748;19.390;2022-09-09T03:55:06;13.60;99.90
22132;DHT22;11232;51.748;19.390;2022-09-09T03:57:33;13.80;99.90
22132;DHT22;11232;51.748;19.390;2022-09-09T04:00:04;14.20;99.90
22132;DHT22;11232;51.748;19.390;2022-09-09T04:02:30;13.70;99.90
22132;DHT22;11232;51.748;19.390;2022-09-09T04:04:56;13.90;99.90
22132;DHT22;11232;51.748;19.390;2022-09-09T04:07:24;13.80;99.90
22132;DHT22;11232;51.748;19.390;2022-09-09T04:09:50;13.70;99.90
22132;DHT22;11232;51.748;19.390;2022-09-09T04:12:16;13.90;99.90
22132;DHT22;11232;51.748;19.390;2022-09-09T04:14:43;13.90;99.90
22132;DHT22;11232;51.748;19.390;2022-09-09T04:17:09;13.80;99.90
22132;DHT22;11232;51.748;19.390;2022-09-09T04:19:35;13.80;99.90
22132;DHT22;11232;51.748;19.390;2022-09-09T04:22:00;14.30;99.90
22132;DHT22;11232;51.748;19.390;2022-09-09T04:24:26;14.20;99.90
22132;DHT22;11232;51.748;19.390;2022-09-09T04:26:54;13.80;99.90
22132;DHT22;11232;51.748;19.390;2022-09-09T04:29:20;14.30;99.90
22132;DHT22;11232;51.748;19.390;2022-09-09T04:31:46;14.60;99.90
22132;DHT22;11232;51.748;19.390;2022-09-09T04:34:12;13.50;99.90
22132;DHT22;11232;51.748;19.390;2022-09-09T04:36:37;14.00;99.90
22132;DHT22;11232;51.748;19.390;2022-09-09T04:39:04;13.90;99.90
22132;DHT22;11232;51.748;19.390;2022-09-09T04:41:30;13.90;99.90
22132;DHT22;11232;51.748;19.390;2022-09-09T04:43:56;13.70;99.90
22132;DHT22;11232;51.748;19.390;2022-09-09T04:46:22;14.00;99.90
22132;DHT22;11232;51.748;19.390;2022-09-09T04:48:49;14.40;99.90
22132;DHT22;11232;51.748;19.390;2022-09-09T04:51:15;14.00;99.90
22132;DHT22;11232;51.748;19.390;2022-09-09T04:53:41;13.70;99.90
22132;DHT22;11232;51.748;19.390;2022-09-09T04:56:12;14.20;99.90
22132;DHT22;11232;51.748;19.390;2022-09-09T04:58:39;14.10;99.90
22132;DHT22;11232;51.748;19.390;2022-09-09T05:01:06;14.30;99.90
22132;DHT22;11232;51.748;19.390;2022-09-09T05:03:32;13.90;99.90
22132;DHT22;11232;51.748;19.390;2022-09-09T05:06:09;14.40;99.90
22132;DHT22;11232;51.748;19.390;2022-09-09T05:08:37;14.30;99.90
22132;DHT22;11232;51.748;19.390;2022-09-09T05:11:04;14.30;99.90
22132;DHT22;11232;51.748;19.390;2022-09-09T05:13:37;14.30;99.90
22132;DHT22;11232;51.748;19.390;2022-09-09T05:16:02;14.50;99.90
22132;DHT22;11232;51.748;19.390;2022-09-09T05:18:28;14.30;99.90
22132;DHT22;11232;51.748;19.390;2022-09-09T05:20:58;15.20;99.90
22132;DHT22;11232;51.748;19.390;2022-09-09T05:23:24;14.10;99.90
22132;DHT22;11232;51.748;19.390;2022-09-09T05:25:57;14.60;99.90
22132;DHT22;11232;51.748;19.390;2022-09-09T05:28:24;15.80;99.90
22132;DHT22;11232;51.748;19.390;2022-09-09T05:31:02;14.80;99.90
22132;DHT22;11232;51.748;19.390;2022-09-09T05:33:33;15.20;99.90
22132;DHT22;11232;51.748;19.390;2022-09-09T05:36:02;15.70;99.90
22132;DHT22;11232;51.748;19.390;2022-09-09T05:38:30;15.10;99.90
22132;DHT22;11232;51.748;19.390;2022-09-09T05:40:56;15.20;99.90
22132;DHT22;11232;51.748;19.390;2022-09-09T05:43:26;15.90;99.90
22132;DHT22;11232;51.748;19.390;2022-09-09T05:48:40;15.40;99.90
22132;DHT22;11232;51.748;19.390;2022-09-09T05:51:09;15.80;99.90
22132;DHT22;11232;51.748;19.390;2022-09-09T05:53:36;16.30;99.90
22132;DHT22;11232;51.748;19.390;2022-09-09T05:56:10;15.60;99.90
22132;DHT22;11232;51.748;19.390;2022-09-09T05:58:37;15.80;99.90
22132;DHT22;11232;51.748;19.390;2022-09-09T06:01:09;15.70;99.90
22132;DHT22;11232;51.748;19.390;2022-09-09T06:03:36;15.70;99.90
22132;DHT22;11232;51.748;19.390;2022-09-09T06:06:05;16.20;99.90
22132;DHT22;11232;51.748;19.390;2022-09-09T06:08:32;15.70;99.90
22132;DHT22;11232;51.748;19.390;2022-09-09T06:11:03;15.80;99.90
22132;DHT22;11232;51.748;19.390;2022-09-09T06:13:30;15.90;99.90
22132;DHT22;11232;51.748;19.390;2022-09-09T06:15:55;15.90;99.90
22132;DHT22;11232;51.748;19.390;2022-09-09T06:18:21;17.30;99.90
22132;DHT22;11232;51.748;19.390;2022-09-09T06:21:01;16.40;99.90
22132;DHT22;11232;51.748;19.390;2022-09-09T06:23:30;16.10;99.90
22132;DHT22;11232;51.748;19.390;2022-09-09T06:26:12;16.40;99.90
22132;DHT22;11232;51.748;19.390;2022-09-09T06:28:38;16.20;99.90
22132;DHT22;11232;51.748;19.390;2022-09-09T06:31:07;16.60;99.90
22132;DHT22;11232;51.748;19.390;2022-09-09T06:33:35;17.40;99.90
22132;DHT22;11232;51.748;19.390;2022-09-09T06:36:01;16.40;99.90
22132;DHT22;11232;51.748;19.390;2022-09-09T06:38:27;16.50;99.90
22132;DHT22;11232;51.748;19.390;2022-09-09T06:40:57;16.60;99.90
22132;DHT22;11232;51.748;19.390;2022-09-09T06:43:24;16.60;99.90
22132;DHT22;11232;51.748;19.390;2022-09-09T06:48:23;16.90;99.90
22132;DHT22;11232;51.748;19.390;2022-09-09T06:50:48;17.00;99.90
22132;DHT22;11232;51.748;19.390;2022-09-09T06:53:17;17.40;99.90
22132;DHT22;11232;51.748;19.390;2022-09-09T06:55:45;17.60;99.90
22132;DHT22;11232;51.748;19.390;2022-09-09T06:58:10;17.10;99.90
22132;DHT22;11232;51.748;19.390;2022-09-09T07:00:36;17.60;99.90
22132;DHT22;11232;51.748;19.390;2022-09-09T07:03:05;17.20;99.90
22132;DHT22;11232;51.748;19.390;2022-09-09T07:05:31;17.50;99.90
22132;DHT22;11232;51.748;19.390;2022-09-09T07:07:57;18.20;99.90
22132;DHT22;11232;51.748;19.390;2022-09-09T07:10:23;18.00;99.90
22132;DHT22;11232;51.748;19.390;2022-09-09T07:12:52;17.70;99.90
22132;DHT22;11232;51.748;19.390;2022-09-09T07:15:18;17.60;99.90
22132;DHT22;11232;51.748;19.390;2022-09-09T07:17:44;17.80;99.90
22132;DHT22;11232;51.748;19.390;2022-09-09T07:20:10;17.90;99.90
22132;DHT22;11232;51.748;19.390;2022-09-09T07:22:36;18.30;99.90
22132;DHT22;11232;51.748;19.390;2022-09-09T07:25:03;18.10;99.90
22132;DHT22;11232;51.748;19.390;2022-09-09T07:27:28;18.30;99.90
22132;DHT22;11232;51.748;19.390;2022-09-09T07:29:54;18.60;99.90
22132;DHT22;11232;51.748;19.390;2022-09-09T07:32:20;19.20;99.90
22132;DHT22;11232;51.748;19.390;2022-09-09T07:37:12;19.20;99.90
22132;DHT22;11232;51.748;19.390;2022-09-09T07:42:06;20.40;99.90
22132;DHT22;11232;51.748;19.390;2022-09-09T07:44:32;21.10;99.90
22132;DHT22;11232;51.748;19.390;2022-09-09T07:47:00;21.40;99.90
22132;DHT22;11232;51.748;19.390;2022-09-09T07:49:26;21.50;99.90
22132;DHT22;11232;51.748;19.390;2022-09-09T07:51:52;21.40;99.90
22132;DHT22;11232;51.748;19.390;2022-09-09T07:54:19;21.40;99.90
22132;DHT22;11232;51.748;19.390;2022-09-09T07:56:49;21.40;99.90
22132;DHT22;11232;51.748;19.390;2022-09-09T07:59:16;21.50;99.90
22132;DHT22;11232;51.748;19.390;2022-09-09T08:01:50;21.50;99.90
22132;DHT22;11232;51.748;19.390;2022-09-09T08:04:21;21.80;99.90
22132;DHT22;11232;51.748;19.390;2022-09-09T08:06:53;22.50;99.90
22132;DHT22;11232;51.748;19.390;2022-09-09T08:09:20;23.20;99.90
22132;DHT22;11232;51.748;19.390;2022-09-09T08:11:46;24.40;99.90
22132;DHT22;11232;51.748;19.390;2022-09-09T08:14:13;25.60;99.90
22132;DHT22;11232;51.748;19.390;2022-09-09T08:16:42;26.10;99.90
22132;DHT22;11232;51.748;19.390;2022-09-09T08:19:08;26.10;99.90
22132;DHT22;11232;51.748;19.390;2022-09-09T08:21:36;26.50;99.90
22132;DHT22;11232;51.748;19.390;2022-09-09T08:24:02;28.10;99.90
22132;DHT22;11232;51.748;19.390;2022-09-09T08:26:30;29.50;96.20
22132;DHT22;11232;51.748;19.390;2022-09-09T08:28:58;30.40;90.40
22132;DHT22;11232;51.748;19.390;2022-09-09T08:31:33;30.60;90.30
22132;DHT22;11232;51.748;19.390;2022-09-09T08:33:59;31.30;87.00
22132;DHT22;11232;51.748;19.390;2022-09-09T08:36:27;32.00;81.20
22132;DHT22;11232;51.748;19.390;2022-09-09T08:38:55;32.80;77.40
22132;DHT22;11232;51.748;19.390;2022-09-09T08:41:34;32.50;76.00
22132;DHT22;11232;51.748;19.390;2022-09-09T08:49:44;34.10;72.60
22132;DHT22;11232;51.748;19.390;2022-09-09T08:57:50;30.30;80.20
22132;DHT22;11232;51.748;19.390;2022-09-09T09:00:17;31.20;79.60
22132;DHT22;11232;51.748;19.390;2022-09-09T09:03:06;33.10;75.80
22132;DHT22;11232;51.748;19.390;2022-09-09T09:06:15;33.30;71.70
22132;DHT22;11232;51.748;19.390;2022-09-09T09:11:49;36.80;63.70
22132;DHT22;11232;51.748;19.390;2022-09-09T09:14:21;36.00;62.70
22132;DHT22;11232;51.748;19.390;2022-09-09T09:17:00;34.10;65.80
22132;DHT22;11232;51.748;19.390;2022-09-09T09:19:30;32.50;70.50
22132;DHT22;11232;51.748;19.390;2022-09-09T09:22:10;32.40;72.10
22132;DHT22;11232;51.748;19.390;2022-09-09T09:30:28;36.80;64.20
22132;DHT22;11232;51.748;19.390;2022-09-09T09:35:38;37.60;58.70
22132;DHT22;11232;51.748;19.390;2022-09-09T09:38:22;39.40;56.70
22132;DHT22;11232;51.748;19.390;2022-09-09T09:40:52;41.20;53.60
22132;DHT22;11232;51.748;19.390;2022-09-09T09:43:37;42.30;52.70
22132;DHT22;11232;51.748;19.390;2022-09-09T09:46:22;42.80;51.50
22132;DHT22;11232;51.748;19.390;2022-09-09T09:49:03;42.60;49.90
22132;DHT22;11232;51.748;19.390;2022-09-09T09:51:32;42.20;50.30
22132;DHT22;11232;51.748;19.390;2022-09-09T09:56:39;40.20;52.30
22132;DHT22;11232;51.748;19.390;2022-09-09T09:59:05;39.40;53.60
22132;DHT22;11232;51.748;19.390;2022-09-09T10:01:43;37.70;55.10
22132;DHT22;11232;51.748;19.390;2022-09-09T10:04:16;37.10;56.70
22132;DHT22;11232;51.748;19.390;2022-09-09T10:06:43;37.90;56.80
22132;DHT22;11232;51.748;19.390;2022-09-09T10:09:27;38.70;54.90
22132;DHT22;11232;51.748;19.390;2022-09-09T10:15:09;42.50;48.50
22132;DHT22;11232;51.748;19.390;2022-09-09T10:18:19;41.10;49.40
22132;DHT22;11232;51.748;19.390;2022-09-09T10:21:13;41.30;50.40
22132;DHT22;11232;51.748;19.390;2022-09-09T10:32:30;42.40;47.00
22132;DHT22;11232;51.748;19.390;2022-09-09T10:38:15;40.70;49.50
22132;DHT22;11232;51.748;19.390;2022-09-09T10:40:43;40.40;51.40
22132;DHT22;11232;51.748;19.390;2022-09-09T10:55:15;37.00;53.40
22132;DHT22;11232;51.748;19.390;2022-09-09T10:57:47;36.80;53.70
22132;DHT22;11232;51.748;19.390;2022-09-09T11:00:18;36.70;54.20
22132;DHT22;11232;51.748;19.390;2022-09-09T11:02:49;36.60;54.60
22132;DHT22;11232;51.748;19.390;2022-09-09T11:05:24;37.00;54.80
22132;DHT22;11232;51.748;19.390;2022-09-09T11:08:17;39.00;51.70
22132;DHT22;11232;51.748;19.390;2022-09-09T11:11:01;41.00;49.80
22132;DHT22;11232;51.748;19.390;2022-09-09T11:18:47;39.20;51.00
22132;DHT22;11232;51.748;19.390;2022-09-09T11:21:27;40.40;50.40
22132;DHT22;11232;51.748;19.390;2022-09-09T11:24:02;41.00;50.10
22132;DHT22;11232;51.748;19.390;2022-09-09T11:26:58;40.40;49.80
22132;DHT22;11232;51.748;19.390;2022-09-09T11:30:02;41.80;49.00
22132;DHT22;11232;51.748;19.390;2022-09-09T11:32:40;42.90;47.40
22132;DHT22;11232;51.748;19.390;2022-09-09T11:38:21;45.60;44.40
22132;DHT22;11232;51.748;19.390;2022-09-09T11:41:16;45.50;43.20
22132;DHT22;11232;51.748;19.390;2022-09-09T11:43:53;46.40;42.70
22132;DHT22;11232;51.748;19.390;2022-09-09T11:46:33;46.10;42.80
22132;DHT22;11232;51.748;19.390;2022-09-09T11:49:05;46.30;42.00
22132;DHT22;11232;51.748;19.390;2022-09-09T11:51:33;46.80;40.80
22132;DHT22;11232;51.748;19.390;2022-09-09T11:54:21;46.10;41.00
22132;DHT22;11232;51.748;19.390;2022-09-09T11:56:48;44.60;43.20
22132;DHT22;11232;51.748;19.390;2022-09-09T11:59:26;43.30;45.50
22132;DHT22;11232;51.748;19.390;2022-09-09T12:02:25;41.70;46.50
22132;DHT22;11232;51.748;19.390;2022-09-09T12:05:07;39.40;49.10
22132;DHT22;11232;51.748;19.390;2022-09-09T12:10:35;36.10;54.30
22132;DHT22;11232;51.748;19.390;2022-09-09T12:13:18;34.50;56.60
22132;DHT22;11232;51.748;19.390;2022-09-09T12:15:50;33.10;59.90
22132;DHT22;11232;51.748;19.390;2022-09-09T12:18:32;32.20;61.60
22132;DHT22;11232;51.748;19.390;2022-09-09T12:26:47;32.80;63.10
22132;DHT22;11232;51.748;19.390;2022-09-09T12:29:27;33.00;61.90
22132;DHT22;11232;51.748;19.390;2022-09-09T12:32:00;32.80;62.70
22132;DHT22;11232;51.748;19.390;2022-09-09T12:34:47;33.10;61.10
22132;DHT22;11232;51.748;19.390;2022-09-09T12:37:23;33.30;59.40
22132;DHT22;11232;51.748;19.390;2022-09-09T12:42:20;31.80;63.10
22132;DHT22;11232;51.748;19.390;2022-09-09T12:44:56;31.40;64.20
22132;DHT22;11232;51.748;19.390;2022-09-09T12:50:04;30.70;64.60
22132;DHT22;11232;51.748;19.390;2022-09-09T12:52:33;30.30;67.90
22132;DHT22;11232;51.748;19.390;2022-09-09T12:55:02;30.00;69.10
22132;DHT22;11232;51.748;19.390;2022-09-09T12:57:36;29.50;70.60
22132;DHT22;11232;51.748;19.390;2022-09-09T13:00:21;29.50;70.90
22132;DHT22;11232;51.748;19.390;2022-09-09T13:02:53;31.80;67.90
22132;DHT22;11232;51.748;19.390;2022-09-09T13:05:36;33.70;62.10
22132;DHT22;11232;51.748;19.390;2022-09-09T13:08:03;33.80;60.00
22132;DHT22;11232;51.748;19.390;2022-09-09T13:10:35;34.00;60.20
22132;DHT22;11232;51.748;19.390;2022-09-09T13:13:05;35.00;58.20
22132;DHT22;11232;51.748;19.390;2022-09-09T13:15:38;34.90;58.10
22132;DHT22;11232;51.748;19.390;2022-09-09T13:18:07;33.20;58.60
22132;DHT22;11232;51.748;19.390;2022-09-09T13:20:36;33.50;58.50
22132;DHT22;11232;51.748;19.390;2022-09-09T13:23:02;34.10;57.50
22132;DHT22;11232;51.748;19.390;2022-09-09T13:25:28;33.70;57.80
22132;DHT22;11232;51.748;19.390;2022-09-09T13:27:58;33.50;59.00
22132;DHT22;11232;51.748;19.390;2022-09-09T13:30:33;32.00;61.90
22132;DHT22;11232;51.748;19.390;2022-09-09T13:33:18;31.70;63.70
22132;DHT22;11232;51.748;19.390;2022-09-09T13:35:57;31.70;65.40
22132;DHT22;11232;51.748;19.390;2022-09-09T13:38:24;31.80;63.40
22132;DHT22;11232;51.748;19.390;2022-09-09T13:41:02;32.00;63.20
22132;DHT22;11232;51.748;19.390;2022-09-09T13:43:35;32.20;62.90
22132;DHT22;11232;51.748;19.390;2022-09-09T13:51:44;32.60;60.40
22132;DHT22;11232;51.748;19.390;2022-09-09T13:54:14;32.20;61.50
22132;DHT22;11232;51.748;19.390;2022-09-09T13:56:41;31.70;62.70
22132;DHT22;11232;51.748;19.390;2022-09-09T13:59:15;31.10;64.60
22132;DHT22;11232;51.748;19.390;2022-09-09T14:01:42;30.40;64.50
22132;DHT22;11232;51.748;19.390;2022-09-09T14:04:08;29.90;66.50
22132;DHT22;11232;51.748;19.390;2022-09-09T14:06:35;29.60;66.80
22132;DHT22;11232;51.748;19.390;2022-09-09T14:09:04;29.50;68.50
22132;DHT22;11232;51.748;19.390;2022-09-09T14:11:29;29.20;69.10
22132;DHT22;11232;51.748;19.390;2022-09-09T14:13:55;28.80;69.30
22132;DHT22;11232;51.748;19.390;2022-09-09T14:16:21;28.50;70.70
22132;DHT22;11232;51.748;19.390;2022-09-09T14:18:47;28.30;72.10
22132;DHT22;11232;51.748;19.390;2022-09-09T14:21:13;28.10;72.00
22132;DHT22;11232;51.748;19.390;2022-09-09T14:23:39;27.80;73.50
22132;DHT22;11232;51.748;19.390;2022-09-09T14:26:06;27.80;72.80
22132;DHT22;11232;51.748;19.390;2022-09-09T14:28:36;27.90;73.80
22132;DHT22;11232;51.748;19.390;2022-09-09T14:31:03;27.50;73.40
22132;DHT22;11232;51.748;19.390;2022-09-09T14:33:29;27.30;74.60
22132;DHT22;11232;51.748;19.390;2022-09-09T14:35:57;27.20;75.70
22132;DHT22;11232;51.748;19.390;2022-09-09T14:38:24;27.00;76.00
22132;DHT22;11232;51.748;19.390;2022-09-09T14:40:49;26.80;77.10
22132;DHT22;11232;51.748;19.390;2022-09-09T14:43:15;26.70;77.70
22132;DHT22;11232;51.748;19.390;2022-09-09T14:45:41;26.60;78.20
22132;DHT22;11232;51.748;19.390;2022-09-09T14:48:06;26.80;78.70
22132;DHT22;11232;51.748;19.390;2022-09-09T14:50:32;26.80;77.20
22132;DHT22;11232;51.748;19.390;2022-09-09T14:52:58;26.80;76.50
22132;DHT22;11232;51.748;19.390;2022-09-09T14:55:23;26.70;75.70
22132;DHT22;11232;51.748;19.390;2022-09-09T14:57:49;26.20;75.90
22132;DHT22;11232;51.748;19.390;2022-09-09T15:00:15;26.20;76.60
22132;DHT22;11232;51.748;19.390;2022-09-09T15:02:41;26.20;77.20
22132;DHT22;11232;51.748;19.390;2022-09-09T15:05:07;26.30;78.40
22132;DHT22;11232;51.748;19.390;2022-09-09T15:07:33;26.30;80.20
22132;DHT22;11232;51.748;19.390;2022-09-09T15:09:59;26.50;79.90
22132;DHT22;11232;51.748;19.390;2022-09-09T15:12:25;26.70;79.10
22132;DHT22;11232;51.748;19.390;2022-09-09T15:14:50;26.60;78.10
22132;DHT22;11232;51.748;19.390;2022-09-09T15:17:16;26.60;79.40
22132;DHT22;11232;51.748;19.390;2022-09-09T15:19:42;26.40;78.40
22132;DHT22;11232;51.748;19.390;2022-09-09T15:22:08;26.50;79.10
22132;DHT22;11232;51.748;19.390;2022-09-09T15:24:34;26.70;78.90
22132;DHT22;11232;51.748;19.390;2022-09-09T15:27:01;26.80;77.60
22132;DHT22;11232;51.748;19.390;2022-09-09T15:29:26;26.60;78.50
22132;DHT22;11232;51.748;19.390;2022-09-09T15:31:55;26.50;80.40
22132;DHT22;11232;51.748;19.390;2022-09-09T15:34:21;26.40;79.90
22132;DHT22;11232;51.748;19.390;2022-09-09T15:36:48;26.30;79.70
22132;DHT22;11232;51.748;19.390;2022-09-09T15:39:16;26.10;79.70
22132;DHT22;11232;51.748;19.390;2022-09-09T15:41:43;25.90;81.50
22132;DHT22;11232;51.748;19.390;2022-09-09T15:44:09;25.80;82.00
22132;DHT22;11232;51.748;19.390;2022-09-09T15:46:46;25.70;81.30
22132;DHT22;11232;51.748;19.390;2022-09-09T15:49:22;25.60;81.90
22132;DHT22;11232;51.748;19.390;2022-09-09T15:51:56;25.40;82.80
22132;DHT22;11232;51.748;19.390;2022-09-09T15:54:25;25.30;83.60
22132;DHT22;11232;51.748;19.390;2022-09-09T15:56:53;25.10;83.60
22132;DHT22;11232;51.748;19.390;2022-09-09T15:59:21;24.90;84.70
22132;DHT22;11232;51.748;19.390;2022-09-09T16:01:47;24.80;86.30
22132;DHT22;11232;51.748;19.390;2022-09-09T16:04:17;24.60;88.80
22132;DHT22;11232;51.748;19.390;2022-09-09T16:07:02;24.50;89.30
22132;DHT22;11232;51.748;19.390;2022-09-09T16:09:29;24.30;87.90
22132;DHT22;11232;51.748;19.390;2022-09-09T16:11:58;23.90;89.50
22132;DHT22;11232;51.748;19.390;2022-09-09T16:14:26;23.60;90.70
22132;DHT22;11232;51.748;19.390;2022-09-09T16:16:52;23.30;91.70
22132;DHT22;11232;51.748;19.390;2022-09-09T16:19:18;23.10;92.90
22132;DHT22;11232;51.748;19.390;2022-09-09T16:21:49;23.00;93.60
22132;DHT22;11232;51.748;19.390;2022-09-09T16:24:16;22.90;94.20
22132;DHT22;11232;51.748;19.390;2022-09-09T16:26:45;22.90;95.10
22132;DHT22;11232;51.748;19.390;2022-09-09T16:29:12;22.80;95.70
22132;DHT22;11232;51.748;19.390;2022-09-09T16:31:38;22.60;96.20
22132;DHT22;11232;51.748;19.390;2022-09-09T16:34:04;22.60;97.20
22132;DHT22;11232;51.748;19.390;2022-09-09T16:36:32;22.50;98.00
22132;DHT22;11232;51.748;19.390;2022-09-09T16:39:07;22.50;98.40
22132;DHT22;11232;51.748;19.390;2022-09-09T16:41:35;22.50;98.50
22132;DHT22;11232;51.748;19.390;2022-09-09T16:44:02;22.40;99.50
22132;DHT22;11232;51.748;19.390;2022-09-09T16:46:30;22.30;99.90
22132;DHT22;11232;51.748;19.390;2022-09-09T16:48:57;22.20;99.90
22132;DHT22;11232;51.748;19.390;2022-09-09T16:51:37;22.00;99.90
22132;DHT22;11232;51.748;19.390;2022-09-09T16:54:05;21.90;99.90
22132;DHT22;11232;51.748;19.390;2022-09-09T16:56:36;21.70;99.90
22132;DHT22;11232;51.748;19.390;2022-09-09T16:59:08;21.70;99.90
22132;DHT22;11232;51.748;19.390;2022-09-09T17:01:37;21.50;99.90
22132;DHT22;11232;51.748;19.390;2022-09-09T17:04:06;21.50;99.90
22132;DHT22;11232;51.748;19.390;2022-09-09T17:06:33;21.30;99.90
22132;DHT22;11232;51.748;19.390;2022-09-09T17:09:09;21.20;99.90
22132;DHT22;11232;51.748;19.390;2022-09-09T17:11:36;21.10;99.90
22132;DHT22;11232;51.748;19.390;2022-09-09T17:14:03;21.00;99.90
22132;DHT22;11232;51.748;19.390;2022-09-09T17:16:31;21.00;99.90
22132;DHT22;11232;51.748;19.390;2022-09-09T17:18:57;20.90;99.90
22132;DHT22;11232;51.748;19.390;2022-09-09T17:21:25;20.70;99.90
22132;DHT22;11232;51.748;19.390;2022-09-09T17:23:52;20.70;99.90
22132;DHT22;11232;51.748;19.390;2022-09-09T17:26:21;20.60;99.90
22132;DHT22;11232;51.748;19.390;2022-09-09T17:28:48;20.60;99.90
22132;DHT22;11232;51.748;19.390;2022-09-09T17:31:16;20.70;99.90
22132;DHT22;11232;51.748;19.390;2022-09-09T17:33:47;20.60;99.90
22132;DHT22;11232;51.748;19.390;2022-09-09T17:36:16;20.50;99.90
22132;DHT22;11232;51.748;19.390;2022-09-09T17:38:42;20.50;99.90
22132;DHT22;11232;51.748;19.390;2022-09-09T17:43:47;20.30;99.90